Time;durP1;ratioP1;P1;durP2;ratioP2;P2;SDS_P1;SDS_P2;PMS_P1;PMS_P2;Temp;Humidity;BMP_temperature;BMP_pressure;BME280_temperature;BME280_humidity;BME280_pressure;Samples;Min_cycle;Max_cycle;Signal;HPM_P1;HPM_P2
2022/01/27 00:00:45;;;;;;;12.98;6.13;;;6.50;99.90;;;;;;5009225;28;20050;-75
2022/01/27 00:03:32;;;;;;;19.50;9.48;;;6.50;99.90;;;;;;5017972;28;20096;-75
2022/01/27 00:06:03;;;;;;;16.40;7.88;;;6.50;99.90;;;;;;4998570;28;20053;-75
2022/01/27 00:08:54;;;;;;;10.82;5.80;;;6.40;99.90;;;;;;5008674;28;20049;-75
2022/01/27 00:11:17;;;;;;;9.82;5.70;;;6.50;99.90;;;;;;5013412;28;20085;-75
2022/01/27 00:13:53;;;;;;;23.65;7.63;;;6.50;99.90;;;;;;4993217;28;20144;-75
2022/01/27 00:16:26;;;;;;;26.08;10.00;;;6.60;99.90;;;;;;4992442;28;20049;-75
2022/01/27 00:18:53;;;;;;;14.80;6.23;;;6.60;99.90;;;;;;5012112;28;20127;-75
2022/01/27 00:21:22;;;;;;;7.18;3.22;;;6.60;99.90;;;;;;4999078;28;20320;-75
2022/01/27 00:23:48;;;;;;;24.23;10.10;;;6.50;99.90;;;;;;5018814;28;20130;-75
2022/01/27 00:26:16;;;;;;;21.52;8.43;;;6.50;99.90;;;;;;5006440;28;20064;-76
2022/01/27 00:28:43;;;;;;;15.02;6.40;;;6.50;99.90;;;;;;5009137;28;20083;-75
2022/01/27 00:31:09;;;;;;;8.90;4.30;;;6.50;99.90;;;;;;5009710;28;20413;-75
2022/01/27 00:33:35;;;;;;;21.80;10.93;;;6.50;99.90;;;;;;5008288;28;20171;-75
2022/01/27 00:36:02;;;;;;;22.92;11.45;;;6.40;99.90;;;;;;5020267;28;20066;-75
2022/01/27 00:38:28;;;;;;;16.95;8.43;;;6.50;99.90;;;;;;5018732;28;20061;-75
2022/01/27 00:40:54;;;;;;;25.65;10.70;;;6.50;99.90;;;;;;5009220;28;20105;-75
2022/01/27 00:43:20;;;;;;;15.70;7.13;;;6.60;99.90;;;;;;5002669;28;20530;-75
2022/01/27 00:45:45;;;;;;;19.00;8.27;;;6.60;99.90;;;;;;5017634;28;20123;-76
2022/01/27 00:48:14;;;;;;;13.60;6.03;;;6.50;99.90;;;;;;5025830;28;20096;-76
2022/01/27 00:50:40;;;;;;;11.05;3.08;;;6.60;99.90;;;;;;5019807;28;20050;-75
2022/01/27 00:53:20;;;;;;;19.35;9.80;;;6.60;99.90;;;;;;5018132;28;20041;-75
2022/01/27 00:55:45;;;;;;;8.23;4.00;;;6.60;99.90;;;;;;5007697;28;20388;-75
2022/01/27 01:00:52;;;;;;;20.23;10.98;;;6.50;99.90;;;;;;5021831;28;20049;-75
2022/01/27 01:03:32;;;;;;;13.65;6.13;;;6.50;99.90;;;;;;5010015;28;20045;-75
2022/01/27 01:16:55;;;;;;;18.35;8.98;;;6.40;99.90;;;;;;5017373;28;20593;-75
2022/01/27 01:30:21;;;;;;;28.48;11.27;;;6.20;99.90;;;;;;5016971;28;20049;-75
2022/01/27 01:32:52;;;;;;;13.20;5.72;;;6.30;99.90;;;;;;5023659;28;20128;-75
2022/01/27 01:35:27;;;;;;;12.27;6.45;;;6.20;99.90;;;;;;5014835;28;20095;-75
2022/01/27 01:37:53;;;;;;;10.95;5.53;;;6.20;99.90;;;;;;5025827;28;20097;-75
2022/01/27 01:40:19;;;;;;;17.83;9.30;;;6.20;99.90;;;;;;5009266;28;20128;-75
2022/01/27 01:42:45;;;;;;;13.65;6.50;;;6.10;99.90;;;;;;5011789;28;20478;-75
2022/01/27 01:45:17;;;;;;;3.10;2.58;;;6.10;99.90;;;;;;5011724;28;20075;-75
2022/01/27 01:47:44;;;;;;;17.50;9.85;;;6.10;99.90;;;;;;5011422;28;20076;-75
2022/01/27 01:50:10;;;;;;;11.98;5.97;;;6.00;99.90;;;;;;5012383;28;20033;-74
2022/01/27 01:52:36;;;;;;;24.55;12.98;;;6.10;99.90;;;;;;5028327;28;20453;-75
2022/01/27 01:55:04;;;;;;;18.33;8.30;;;6.10;99.90;;;;;;5011892;28;20049;-75
2022/01/27 01:57:29;;;;;;;23.35;9.35;;;6.00;99.90;;;;;;5028514;28;20133;-75
2022/01/27 01:59:55;;;;;;;22.95;9.98;;;6.00;99.90;;;;;;5011890;28;20530;-75
2022/01/27 02:02:21;;;;;;;20.23;7.03;;;6.00;99.90;;;;;;5029284;28;20045;-75
2022/01/27 02:04:47;;;;;;;14.77;7.25;;;6.00;99.90;;;;;;4994935;28;20060;-76
2022/01/27 02:10:35;;;;;;;17.15;8.48;;;6.00;99.90;;;;;;5016132;28;20125;-75
2022/01/27 02:18:29;;;;;;;24.08;10.88;;;6.00;99.90;;;;;;5029320;28;20489;-75
2022/01/27 02:20:55;;;;;;;12.18;7.28;;;6.00;99.90;;;;;;5032733;28;20068;-74
2022/01/27 02:23:20;;;;;;;28.33;7.30;;;6.10;99.90;;;;;;5016588;28;20060;-74
2022/01/27 02:25:46;;;;;;;22.75;10.70;;;6.10;99.90;;;;;;5031166;28;20075;-74
2022/01/27 02:28:12;;;;;;;15.50;8.00;;;6.10;99.90;;;;;;5028742;28;20092;-74
2022/01/27 02:30:37;;;;;;;18.42;9.02;;;6.10;99.90;;;;;;5017076;28;20120;-74
2022/01/27 02:33:03;;;;;;;23.75;12.55;;;6.10;99.90;;;;;;5024876;28;20065;-74
2022/01/27 02:35:32;;;;;;;25.25;13.32;;;6.10;99.90;;;;;;5022794;28;20090;-75
2022/01/27 02:37:58;;;;;;;23.25;11.63;;;6.20;99.90;;;;;;5012436;28;20040;-75
2022/01/27 02:40:26;;;;;;;20.20;10.73;;;6.20;99.90;;;;;;5024994;28;20045;-75
2022/01/27 02:42:53;;;;;;;22.27;10.45;;;6.20;99.90;;;;;;5011676;28;20041;-75
2022/01/27 02:45:30;;;;;;;19.58;7.88;;;6.20;99.90;;;;;;5009116;28;20441;-74
2022/01/27 02:47:56;;;;;;;22.05;11.55;;;6.20;99.90;;;;;;4997612;28;20491;-75
2022/01/27 02:50:21;;;;;;;29.48;11.68;;;6.20;99.90;;;;;;4997664;28;20124;-76
2022/01/27 02:52:47;;;;;;;19.48;9.43;;;6.30;99.90;;;;;;5027799;28;20042;-75
2022/01/27 02:55:12;;;;;;;32.25;17.35;;;6.20;99.90;;;;;;5000700;28;20074;-75
2022/01/27 02:57:39;;;;;;;18.15;8.20;;;6.30;99.90;;;;;;5002415;28;20405;-75
2022/01/27 03:00:06;;;;;;;21.83;11.32;;;6.30;99.90;;;;;;4997286;28;20044;-75
2022/01/27 03:02:33;;;;;;;29.50;15.25;;;6.30;99.90;;;;;;5012030;28;20063;-74
2022/01/27 03:04:58;;;;;;;29.20;17.02;;;6.30;99.90;;;;;;5028055;28;20112;-75
2022/01/27 03:07:24;;;;;;;27.85;14.23;;;6.40;99.90;;;;;;5026552;28;20125;-75
2022/01/27 03:09:49;;;;;;;35.22;18.23;;;6.40;99.90;;;;;;5011846;28;20045;-75
2022/01/27 03:12:17;;;;;;;25.50;10.60;;;6.40;99.90;;;;;;5005309;28;20130;-75
2022/01/27 03:14:42;;;;;;;21.88;11.30;;;6.40;99.90;;;;;;5028507;28;20056;-75
2022/01/27 03:17:09;;;;;;;20.88;9.60;;;6.40;99.90;;;;;;5010917;28;20045;-75
2022/01/27 03:19:36;;;;;;;30.35;15.85;;;6.40;99.90;;;;;;5002777;28;20053;-75
2022/01/27 03:22:03;;;;;;;14.52;7.85;;;6.40;99.90;;;;;;5020524;28;20125;-75
2022/01/27 03:24:29;;;;;;;29.60;13.45;;;6.40;99.90;;;;;;5028513;28;20057;-75
2022/01/27 03:26:55;;;;;;;34.92;6.50;;;6.40;99.90;;;;;;5019218;28;20058;-75
2022/01/27 03:29:21;;;;;;;30.67;14.35;;;6.30;99.90;;;;;;5016024;28;20041;-75
2022/01/27 03:31:47;;;;;;;19.92;9.52;;;6.30;99.90;;;;;;5027247;28;20424;-75
2022/01/27 03:34:13;;;;;;;30.33;13.00;;;6.40;99.90;;;;;;5018087;28;20037;-75
2022/01/27 03:36:39;;;;;;;13.75;7.45;;;6.40;99.90;;;;;;5028283;28;20072;-75
2022/01/27 03:39:06;;;;;;;21.98;8.25;;;6.40;99.90;;;;;;5012671;28;20049;-75
2022/01/27 03:41:34;;;;;;;17.55;9.52;;;6.40;99.90;;;;;;5010870;28;20048;-74
2022/01/27 03:44:00;;;;;;;23.70;10.57;;;6.40;99.90;;;;;;5021898;28;20077;-75
2022/01/27 03:46:26;;;;;;;30.10;13.82;;;6.40;99.90;;;;;;5028209;28;20045;-75
2022/01/27 03:48:52;;;;;;;24.17;10.23;;;6.40;99.90;;;;;;5026348;28;20502;-75
2022/01/27 03:51:17;;;;;;;17.35;8.80;;;6.50;99.90;;;;;;5009625;28;20050;-75
2022/01/27 03:53:43;;;;;;;29.13;13.30;;;6.40;99.90;;;;;;4993140;28;20108;-74
2022/01/27 03:56:09;;;;;;;21.38;9.73;;;6.40;99.90;;;;;;5018534;28;20049;-75
2022/01/27 03:58:34;;;;;;;43.72;19.25;;;6.40;99.90;;;;;;5003640;28;20053;-75
2022/01/27 04:01:04;;;;;;;32.55;18.30;;;6.50;99.90;;;;;;5008635;28;20044;-75
2022/01/27 04:03:33;;;;;;;34.47;18.30;;;6.50;99.90;;;;;;5025443;28;20037;-75
2022/01/27 04:06:06;;;;;;;14.07;8.18;;;6.50;99.90;;;;;;5026892;28;20088;-75
2022/01/27 04:08:33;;;;;;;10.85;6.15;;;6.50;99.90;;;;;;5010772;28;20045;-75
2022/01/27 04:10:58;;;;;;;29.10;11.25;;;6.50;99.90;;;;;;5004103;28;20130;-75
2022/01/27 04:13:24;;;;;;;25.80;9.82;;;6.50;99.90;;;;;;4992528;28;20509;-74
2022/01/27 04:15:49;;;;;;;32.13;12.80;;;6.50;99.90;;;;;;5007224;28;20049;-75
2022/01/27 04:18:15;;;;;;;26.30;13.52;;;6.50;99.90;;;;;;5010775;28;20069;-75
2022/01/27 04:20:42;;;;;;;20.63;10.88;;;6.50;99.90;;;;;;5008431;28;20044;-75
2022/01/27 04:23:09;;;;;;;14.73;7.90;;;6.60;99.90;;;;;;5010618;28;20049;-75
2022/01/27 04:25:37;;;;;;;24.55;11.38;;;6.60;99.90;;;;;;5000594;28;20060;-75
2022/01/27 04:28:07;;;;;;;18.48;9.88;;;6.60;99.90;;;;;;5010649;28;20522;-75
2022/01/27 04:30:33;;;;;;;19.42;10.27;;;6.60;99.90;;;;;;4991217;28;20133;-75
2022/01/27 04:33:01;;;;;;;22.77;10.30;;;6.60;99.90;;;;;;4995877;28;20053;-75
2022/01/27 04:35:31;;;;;;;14.70;7.57;;;6.60;99.90;;;;;;5020807;28;20049;-75
2022/01/27 04:40:34;;;;;;;10.25;6.28;;;6.60;99.90;;;;;;5014228;28;20096;-75
2022/01/27 04:45:35;;;;;;;28.00;12.25;;;6.60;99.90;;;;;;5026819;28;20452;-75
2022/01/27 04:48:10;;;;;;;16.65;6.53;;;6.60;99.90;;;;;;5026088;28;20449;-75
2022/01/27 04:50:36;;;;;;;11.57;6.32;;;6.60;99.90;;;;;;4999149;28;20049;-75
2022/01/27 04:53:05;;;;;;;24.77;11.05;;;6.50;99.90;;;;;;5006714;28;20162;-75
2022/01/27 04:55:31;;;;;;;28.67;11.55;;;6.60;99.90;;;;;;5025839;28;20044;-75
2022/01/27 04:58:08;;;;;;;29.38;12.60;;;6.60;99.90;;;;;;5026540;28;20041;-75
2022/01/27 05:00:34;;;;;;;17.30;7.82;;;6.60;99.90;;;;;;5006389;28;20077;-75
2022/01/27 05:03:01;;;;;;;21.95;9.40;;;6.60;99.90;;;;;;5011675;28;20082;-75
2022/01/27 05:05:27;;;;;;;17.58;6.78;;;6.60;99.90;;;;;;5009478;28;20046;-75
2022/01/27 05:07:58;;;;;;;20.85;8.43;;;6.60;99.90;;;;;;5003621;28;20048;-75
2022/01/27 05:10:29;;;;;;;11.68;5.78;;;6.60;99.90;;;;;;4992673;28;20113;-75
2022/01/27 05:13:06;;;;;;;27.48;11.63;;;6.60;99.90;;;;;;5020655;28;20042;-76
2022/01/27 05:15:34;;;;;;;27.00;8.90;;;6.60;99.90;;;;;;5006498;28;20132;-76
2022/01/27 05:17:59;;;;;;;25.05;7.53;;;6.60;99.90;;;;;;5021738;28;20069;-76
2022/01/27 05:20:25;;;;;;;27.38;12.52;;;6.60;99.90;;;;;;5005817;28;20486;-75
2022/01/27 05:22:51;;;;;;;14.88;7.90;;;6.50;99.90;;;;;;5018110;28;20459;-75
2022/01/27 05:25:16;;;;;;;35.78;14.02;;;6.50;99.90;;;;;;5023569;28;20049;-75
2022/01/27 05:27:42;;;;;;;27.38;10.52;;;6.50;99.90;;;;;;5004647;28;20038;-76
2022/01/27 05:30:08;;;;;;;5.28;2.47;;;6.50;99.90;;;;;;5025792;28;20046;-76
2022/01/27 05:32:35;;;;;;;18.88;8.60;;;6.50;99.90;;;;;;5014916;28;20041;-76
2022/01/27 05:35:02;;;;;;;35.25;13.70;;;6.50;99.90;;;;;;5026336;28;20046;-75
2022/01/27 05:37:27;;;;;;;33.10;12.80;;;6.50;99.90;;;;;;5020651;28;20057;-75
2022/01/27 05:39:53;;;;;;;25.90;11.38;;;6.50;99.90;;;;;;5008729;28;20057;-75
2022/01/27 05:42:19;;;;;;;33.72;11.60;;;6.50;99.90;;;;;;5025208;28;20068;-75
2022/01/27 05:44:44;;;;;;;31.60;13.05;;;6.50;99.90;;;;;;5000217;28;20045;-75
2022/01/27 05:47:10;;;;;;;18.05;7.57;;;6.40;99.90;;;;;;5000594;28;20042;-75
2022/01/27 05:49:35;;;;;;;13.02;6.20;;;6.40;99.90;;;;;;5005730;28;20140;-75
2022/01/27 05:52:01;;;;;;;13.25;5.57;;;6.40;99.90;;;;;;5024311;28;20143;-75
2022/01/27 05:54:27;;;;;;;19.75;7.65;;;6.40;99.90;;;;;;5021702;28;20045;-74
2022/01/27 05:56:52;;;;;;;21.45;7.88;;;6.30;99.90;;;;;;5005735;28;20072;-75
2022/01/27 05:59:18;;;;;;;44.17;19.52;;;6.30;99.90;;;;;;5004930;28;20509;-75
2022/01/27 06:01:44;;;;;;;13.15;4.28;;;6.40;99.90;;;;;;5005851;28;20558;-75
2022/01/27 06:04:09;;;;;;;5.22;2.28;;;6.30;99.90;;;;;;5019329;28;20503;-75
2022/01/27 06:06:35;;;;;;;16.42;5.88;;;6.40;99.90;;;;;;5010893;28;20167;-75
2022/01/27 06:09:00;;;;;;;29.45;7.53;;;6.40;99.90;;;;;;5000001;28;20494;-75
2022/01/27 06:11:26;;;;;;;27.65;11.15;;;6.40;99.90;;;;;;5002118;28;20079;-75
2022/01/27 06:13:51;;;;;;;14.90;6.60;;;6.50;99.90;;;;;;4995513;28;20041;-75
2022/01/27 06:16:17;;;;;;;35.83;17.52;;;6.50;99.90;;;;;;5022672;28;20038;-75
2022/01/27 06:18:43;;;;;;;10.43;6.32;;;6.50;99.90;;;;;;5025456;28;20111;-75
2022/01/27 06:21:10;;;;;;;23.08;10.25;;;6.60;99.90;;;;;;5008639;28;20042;-75
2022/01/27 06:23:35;;;;;;;26.70;9.00;;;6.60;99.90;;;;;;5021572;28;20045;-76
2022/01/27 06:26:05;;;;;;;38.35;13.70;;;6.60;99.90;;;;;;5024187;28;20045;-75
2022/01/27 06:28:31;;;;;;;30.58;8.75;;;6.60;99.90;;;;;;5009293;28;20490;-75
2022/01/27 06:30:56;;;;;;;21.05;10.05;;;6.60;99.90;;;;;;5010693;28;20301;-75
2022/01/27 06:33:22;;;;;;;12.73;6.97;;;6.70;99.90;;;;;;5010688;28;20497;-75
2022/01/27 06:35:48;;;;;;;25.02;8.60;;;6.70;99.90;;;;;;5016891;28;20574;-75
2022/01/27 06:38:14;;;;;;;15.32;5.78;;;6.70;99.90;;;;;;5009462;28;20137;-75
2022/01/27 06:40:40;;;;;;;18.08;6.22;;;6.70;99.90;;;;;;4999453;28;20125;-76
2022/01/27 06:43:05;;;;;;;26.20;8.90;;;6.70;99.90;;;;;;5024828;28;20057;-75
2022/01/27 06:45:31;;;;;;;29.75;10.50;;;6.70;99.90;;;;;;5008913;28;20610;-75
2022/01/27 06:47:56;;;;;;;19.42;9.07;;;6.70;99.90;;;;;;5020758;28;20056;-76
2022/01/27 06:50:22;;;;;;;5.28;2.92;;;6.70;99.90;;;;;;5025548;28;20079;-75
2022/01/27 06:52:48;;;;;;;18.92;9.23;;;6.70;99.90;;;;;;5008530;28;20046;-75
2022/01/27 06:55:17;;;;;;;14.57;7.70;;;6.80;99.90;;;;;;5026093;28;20103;-75
2022/01/27 06:57:44;;;;;;;18.38;7.82;;;6.80;99.90;;;;;;5022400;28;20096;-75
2022/01/27 07:00:10;;;;;;;35.53;14.35;;;6.80;99.90;;;;;;5009080;28;20140;-75
2022/01/27 07:02:36;;;;;;;33.03;10.55;;;6.90;99.90;;;;;;5001363;28;20100;-75
2022/01/27 07:05:02;;;;;;;18.83;8.18;;;6.80;99.90;;;;;;5046761;28;20081;-75
2022/01/27 07:07:27;;;;;;;34.90;11.57;;;6.90;99.90;;;;;;5021237;28;20055;-75
2022/01/27 07:09:53;;;;;;;30.70;11.90;;;6.90;99.90;;;;;;5008431;28;20659;-75
2022/01/27 07:12:19;;;;;;;28.38;12.60;;;6.90;99.90;;;;;;5024415;28;20049;-75
2022/01/27 07:14:45;;;;;;;26.83;10.30;;;6.90;99.90;;;;;;5028176;28;20049;-75
2022/01/27 07:17:12;;;;;;;23.48;9.98;;;6.90;99.90;;;;;;5009948;28;20048;-75
2022/01/27 07:19:38;;;;;;;16.63;6.55;;;6.90;99.90;;;;;;5011342;28;20060;-76
2022/01/27 07:22:03;;;;;;;20.52;7.18;;;6.90;99.90;;;;;;5009516;28;20505;-75
2022/01/27 07:24:29;;;;;;;16.40;7.05;;;6.90;99.90;;;;;;5008879;28;20056;-75
2022/01/27 07:26:55;;;;;;;16.05;6.93;;;7.00;99.90;;;;;;5011584;28;20068;-76
2022/01/27 07:29:20;;;;;;;17.27;6.90;;;7.00;99.90;;;;;;5019724;28;20037;-75
2022/01/27 07:31:46;;;;;;;26.98;10.18;;;7.00;99.90;;;;;;5009834;28;20434;-75
2022/01/27 07:34:11;;;;;;;20.25;7.32;;;7.00;99.90;;;;;;4998148;28;20042;-76
2022/01/27 07:36:37;;;;;;;14.15;5.05;;;7.10;99.90;;;;;;5008533;28;20041;-76
2022/01/27 07:39:03;;;;;;;32.15;10.90;;;7.10;99.90;;;;;;5011776;28;20057;-75
2022/01/27 07:41:29;;;;;;;19.65;8.65;;;7.10;99.90;;;;;;5008247;28;20051;-75
2022/01/27 07:43:54;;;;;;;13.55;5.40;;;7.10;99.90;;;;;;5011905;28;20058;-76
2022/01/27 07:46:20;;;;;;;26.38;9.48;;;7.20;99.90;;;;;;5009147;28;20045;-75
2022/01/27 07:48:46;;;;;;;47.70;12.23;;;7.20;99.90;;;;;;5004095;28;20506;-75
2022/01/27 07:51:11;;;;;;;18.67;8.18;;;7.30;99.90;;;;;;4992047;28;20083;-75
2022/01/27 07:53:38;;;;;;;17.58;7.75;;;7.30;99.90;;;;;;4992420;28;20049;-75
2022/01/27 07:56:04;;;;;;;8.88;4.32;;;7.40;99.90;;;;;;4999282;28;20041;-75
2022/01/27 07:58:31;;;;;;;35.53;12.10;;;7.40;99.90;;;;;;5007029;28;20042;-76
2022/01/27 08:00:58;;;;;;;19.58;7.25;;;7.40;99.90;;;;;;5007930;28;20049;-75
2022/01/27 08:03:24;;;;;;;43.85;11.73;;;7.40;99.90;;;;;;5008374;28;20180;-75
2022/01/27 08:05:49;;;;;;;15.63;6.68;;;7.50;99.90;;;;;;4991860;28;20148;-75
2022/01/27 08:08:15;;;;;;;17.83;7.25;;;7.60;99.90;;;;;;4992369;28;20136;-75
2022/01/27 08:10:41;;;;;;;24.70;9.40;;;7.50;99.90;;;;;;5001621;28;20048;-75
2022/01/27 08:13:07;;;;;;;29.27;8.00;;;7.60;99.90;;;;;;5030168;28;20053;-75
2022/01/27 08:15:33;;;;;;;22.80;8.25;;;7.60;99.90;;;;;;5002305;28;20048;-76
2022/01/27 08:17:59;;;;;;;19.77;7.82;;;7.70;99.90;;;;;;5021779;28;20056;-75
2022/01/27 08:20:25;;;;;;;22.80;8.50;;;7.70;99.90;;;;;;5016637;28;20057;-75
2022/01/27 08:22:54;;;;;;;24.00;9.50;;;7.70;99.90;;;;;;5018716;28;20395;-75
2022/01/27 08:25:22;;;;;;;21.27;8.50;;;7.80;99.90;;;;;;5020814;28;20063;-75
2022/01/27 08:27:50;;;;;;;19.25;8.15;;;7.90;99.90;;;;;;5006407;28;20569;-77
2022/01/27 08:30:18;;;;;;;22.48;5.93;;;8.00;99.90;;;;;;5022932;28;20052;-76
2022/01/27 08:32:47;;;;;;;26.75;9.40;;;8.00;99.90;;;;;;5021062;28;20046;-76
2022/01/27 08:35:18;;;;;;;18.65;7.68;;;8.00;99.90;;;;;;5005301;28;20033;-76
2022/01/27 08:37:45;;;;;;;7.18;3.58;;;8.10;99.90;;;;;;5006086;28;20041;-76
2022/01/27 08:40:14;;;;;;;13.45;4.00;;;8.00;99.90;;;;;;5008109;28;20162;-76
2022/01/27 08:42:41;;;;;;;19.98;6.90;;;8.10;99.90;;;;;;5009516;28;20081;-76
2022/01/27 08:45:09;;;;;;;15.73;5.40;;;8.10;99.90;;;;;;5008334;28;20624;-76
2022/01/27 08:47:35;;;;;;;22.63;4.80;;;8.10;99.90;;;;;;5020590;28;20132;-76
2022/01/27 08:50:02;;;;;;;30.60;9.50;;;8.10;99.90;;;;;;5010477;28;20141;-76
2022/01/27 08:52:27;;;;;;;18.90;7.03;;;8.10;99.90;;;;;;5025797;28;20045;-76
2022/01/27 08:54:53;;;;;;;18.65;5.65;;;8.10;99.90;;;;;;5010287;28;20095;-76
2022/01/27 08:57:18;;;;;;;11.10;4.03;;;8.10;99.90;;;;;;5019875;28;20050;-76
2022/01/27 08:59:44;;;;;;;21.25;7.20;;;8.10;99.90;;;;;;5009834;28;20426;-76
2022/01/27 09:02:09;;;;;;;15.48;5.80;;;8.10;99.90;;;;;;5025732;28;20033;-76
2022/01/27 09:04:35;;;;;;;18.77;4.88;;;8.10;99.90;;;;;;5006381;28;20046;-76
2022/01/27 09:07:00;;;;;;;18.75;5.00;;;8.20;99.90;;;;;;5001142;28;20148;-77
2022/01/27 09:09:26;;;;;;;23.45;8.13;;;8.20;99.90;;;;;;5026928;28;20049;-77
2022/01/27 09:11:53;;;;;;;15.55;6.55;;;8.30;99.90;;;;;;5005794;28;20116;-76
2022/01/27 09:14:18;;;;;;;18.13;4.68;;;8.30;99.90;;;;;;5025351;28;20045;-76
2022/01/27 09:16:44;;;;;;;15.95;4.55;;;8.30;99.90;;;;;;5022667;28;20034;-76
2022/01/27 09:19:09;;;;;;;16.65;5.85;;;8.40;99.90;;;;;;5006388;28;20047;-76
2022/01/27 09:21:44;;;;;;;15.95;4.88;;;8.40;99.90;;;;;;5008556;28;20414;-76
2022/01/27 09:24:18;;;;;;;16.85;3.50;;;8.40;99.90;;;;;;5017583;28;20043;-76
2022/01/27 09:26:53;;;;;;;15.18;4.25;;;8.50;99.90;;;;;;5009933;28;20041;-76
2022/01/27 09:29:20;;;;;;;9.45;3.25;;;8.50;99.90;;;;;;5024017;28;20088;-76
2022/01/27 09:31:47;;;;;;;16.48;4.95;;;8.50;99.90;;;;;;5025577;28;20041;-76
2022/01/27 09:34:13;;;;;;;9.05;3.25;;;8.60;99.90;;;;;;5007562;28;20056;-77
2022/01/27 09:36:39;;;;;;;17.40;4.93;;;8.70;99.90;;;;;;5005127;28;20050;-76
2022/01/27 09:39:05;;;;;;;14.98;4.75;;;8.70;99.90;;;;;;5008543;28;20586;-76
2022/01/27 09:41:36;;;;;;;23.67;5.47;;;8.70;99.90;;;;;;5009776;28;20053;-76
2022/01/27 09:44:01;;;;;;;16.00;4.40;;;8.70;99.90;;;;;;5025099;28;20046;-76
2022/01/27 09:46:27;;;;;;;10.50;3.47;;;8.70;99.90;;;;;;5003684;28;20547;-76
2022/01/27 09:48:54;;;;;;;10.60;3.70;;;8.70;99.90;;;;;;5023035;28;20072;-76
2022/01/27 09:53:51;;;;;;;12.93;3.08;;;8.70;99.90;;;;;;5016992;28;20131;-76
2022/01/27 09:56:17;;;;;;;16.38;4.53;;;8.80;99.90;;;;;;5018714;28;20049;-76
2022/01/27 09:58:43;;;;;;;14.82;3.80;;;8.80;99.90;;;;;;5007487;28;20052;-76
2022/01/27 10:01:09;;;;;;;13.75;3.63;;;8.80;99.90;;;;;;5000058;28;20038;-76
2022/01/27 10:03:52;;;;;;;19.77;4.22;;;8.70;99.90;;;;;;5003780;28;20042;-76
2022/01/27 10:06:18;;;;;;;;;;;8.80;99.90;;;;;;5012994;28;20107;-76
2022/01/27 10:08:44;;;;;;;11.93;3.95;;;8.80;99.90;;;;;;5012590;28;19999;-76
2022/01/27 10:11:15;;;;;;;17.73;3.40;;;8.80;99.90;;;;;;5023729;28;20132;-76
2022/01/27 10:13:43;;;;;;;10.95;3.72;;;8.70;99.90;;;;;;5012016;28;20049;-76
2022/01/27 10:16:27;;;;;;;11.07;3.22;;;8.80;99.90;;;;;;5027757;28;20038;-76
2022/01/27 10:19:04;;;;;;;15.02;3.72;;;8.80;99.90;;;;;;5023114;28;20553;-76
2022/01/27 10:21:34;;;;;;;15.90;3.97;;;8.90;99.90;;;;;;5026522;28;20041;-76
2022/01/27 10:24:18;;;;;;;14.38;3.83;;;8.90;99.90;;;;;;5011874;28;20041;-76
2022/01/27 10:26:51;;;;;;;23.60;4.57;;;8.90;99.90;;;;;;5024272;28;20045;-74
2022/01/27 10:29:29;;;;;;;15.85;3.80;;;8.80;99.90;;;;;;5011844;28;20046;-73
2022/01/27 10:32:07;;;;;;;17.80;4.38;;;8.90;99.90;;;;;;5003517;28;20394;-74
2022/01/27 10:34:59;;;;;;;16.42;4.13;;;8.90;99.90;;;;;;5026022;28;20037;-74
2022/01/27 10:37:25;;;;;;;11.45;3.22;;;8.90;99.90;;;;;;5025595;28;20056;-74
2022/01/27 10:39:50;;;;;;;10.98;2.80;;;8.90;99.90;;;;;;5023294;28;20034;-74
2022/01/27 10:42:21;;;;;;;10.35;3.70;;;9.00;99.90;;;;;;5007311;28;20103;-74
2022/01/27 10:44:54;;;;;;;19.58;5.65;;;9.00;99.90;;;;;;5023528;28;20453;-74
2022/01/27 10:47:22;;;;;;;12.27;3.55;;;9.10;99.90;;;;;;5024007;28;20494;-74
2022/01/27 10:52:28;;;;;;;22.27;5.32;;;9.30;99.90;;;;;;5023528;28;20061;-74
2022/01/27 10:55:00;;;;;;;15.43;3.28;;;9.30;99.90;;;;;;5010238;28;20052;-74
2022/01/27 10:57:27;;;;;;;17.50;4.07;;;9.40;99.90;;;;;;5028530;28;20049;-74
2022/01/27 11:00:11;;;;;;;19.17;5.05;;;9.40;99.90;;;;;;5027441;28;20068;-74
2022/01/27 11:02:53;;;;;;;24.27;2.70;;;9.40;99.90;;;;;;5024832;28;20111;-74
2022/01/27 11:05:21;;;;;;;8.30;3.15;;;9.50;99.90;;;;;;5035968;28;20053;-74
2022/01/27 11:07:47;;;;;;;10.38;2.80;;;9.50;99.90;;;;;;5011563;28;20049;-73
2022/01/27 11:10:15;;;;;;;13.93;3.03;;;9.40;99.90;;;;;;5023341;28;20076;-73
2022/01/27 11:12:42;;;;;;;15.30;4.38;;;9.40;99.90;;;;;;5011690;28;20042;-73
2022/01/27 11:15:11;;;;;;;17.95;3.33;;;9.40;99.90;;;;;;5010789;28;20063;-74
2022/01/27 11:17:38;;;;;;;15.82;3.40;;;9.50;99.90;;;;;;5027266;28;20148;-74
2022/01/27 11:20:23;;;;;;;12.57;2.47;;;9.50;99.90;;;;;;5000093;28;20030;-74
2022/01/27 11:27:53;;;;;;;13.20;2.83;;;9.60;99.90;;;;;;5027870;28;20414;-74
2022/01/27 11:30:51;;;;;;;7.68;2.42;;;9.60;99.90;;;;;;5006204;28;20046;-73
2022/01/27 11:33:18;;;;;;;16.65;3.70;;;9.60;99.90;;;;;;5020113;28;20977;-73
2022/01/27 11:35:43;;;;;;;13.80;4.18;;;9.60;99.90;;;;;;5008042;28;20087;-74
2022/01/27 11:38:10;;;;;;;13.80;3.15;;;9.60;99.90;;;;;;5003362;28;20033;-74
2022/01/27 11:40:41;;;;;;;18.92;4.68;;;9.60;99.90;;;;;;5019684;28;20049;-74
2022/01/27 11:43:11;;;;;;;37.22;4.97;;;9.60;99.90;;;;;;5018113;28;20430;-74
2022/01/27 11:45:44;;;;;;;11.45;2.97;;;9.60;99.90;;;;;;5005382;28;20088;-73
2022/01/27 11:48:14;;;;;;;;;;;9.70;99.90;;;;;;5008462;28;20084;-74
2022/01/27 11:50:59;;;;;;;11.98;3.05;;;9.70;99.90;;;;;;5004066;28;19975;-73
2022/01/27 11:53:33;;;;;;;15.43;3.45;;;9.70;99.90;;;;;;5006790;28;20628;-73
2022/01/27 11:56:15;;;;;;;19.17;3.65;;;9.70;99.90;;;;;;5024753;28;20046;-73
2022/01/27 11:58:46;;;;;;;13.07;3.45;;;9.70;99.90;;;;;;5018143;28;20054;-74
2022/01/27 12:01:17;;;;;;;11.77;2.78;;;9.70;99.90;;;;;;5007649;28;20053;-73
2022/01/27 12:04:02;;;;;;;12.13;2.00;;;9.70;99.90;;;;;;5001034;28;20054;-73
2022/01/27 12:06:28;;;;;;;17.48;3.08;;;9.70;99.90;;;;;;5005312;28;20129;-73
2022/01/27 12:09:19;;;;;;;25.23;4.38;;;9.60;99.90;;;;;;4990448;28;20125;-73
2022/01/27 12:11:50;;;;;;;11.95;3.00;;;9.60;99.90;;;;;;4998024;28;20049;-74
2022/01/27 12:14:21;;;;;;;22.27;3.95;;;9.60;99.90;;;;;;4997095;28;20049;-73
2022/01/27 12:17:07;;;;;;;14.00;2.15;;;9.70;99.90;;;;;;5006431;28;20137;-73
2022/01/27 12:19:53;;;;;;;13.82;3.17;;;9.70;99.90;;;;;;5021580;28;20053;-74
2022/01/27 12:22:22;;;;;;;19.50;4.85;;;9.70;99.90;;;;;;5017393;28;20084;-74
2022/01/27 12:25:02;;;;;;;14.40;2.78;;;9.70;99.90;;;;;;5025119;28;20136;-74
2022/01/27 12:27:29;;;;;;;15.77;3.65;;;9.70;99.90;;;;;;5005371;28;20383;-74
2022/01/27 12:29:57;;;;;;;20.63;3.60;;;9.70;99.90;;;;;;5022415;28;20141;-74
2022/01/27 12:32:31;;;;;;;22.02;3.65;;;9.70;99.90;;;;;;5007011;28;20053;-74
2022/01/27 12:34:58;;;;;;;16.88;3.38;;;9.70;99.90;;;;;;5007478;28;20048;-74
2022/01/27 12:37:28;;;;;;;16.92;4.43;;;9.70;99.90;;;;;;5004330;28;20517;-74
2022/01/27 12:39:59;;;;;;;20.63;3.83;;;9.60;99.90;;;;;;5018110;28;20041;-74
2022/01/27 12:42:32;;;;;;;27.02;4.28;;;9.70;99.90;;;;;;5016249;28;20037;-74
2022/01/27 12:45:12;;;;;;;17.25;3.15;;;9.70;99.90;;;;;;5005676;28;20134;-74
2022/01/27 12:47:42;;;;;;;27.55;3.28;;;9.70;99.90;;;;;;5005971;28;20045;-74
2022/01/27 12:50:15;;;;;;;28.80;3.97;;;9.70;99.90;;;;;;5002018;28;20045;-74
2022/01/27 12:52:51;;;;;;;18.85;3.53;;;9.80;99.90;;;;;;5007673;28;20447;-74
2022/01/27 12:55:19;;;;;;;10.98;2.80;;;9.80;99.90;;;;;;5001618;28;20107;-74
2022/01/27 12:57:55;;;;;;;18.80;3.70;;;9.70;99.90;;;;;;5010726;28;20120;-74
2022/01/27 13:00:24;;;;;;;21.25;3.22;;;9.80;99.90;;;;;;5022749;28;20395;-74
2022/01/27 13:02:50;;;;;;;19.90;3.65;;;9.80;99.90;;;;;;5002483;28;20052;-74
2022/01/27 13:05:15;;;;;;;13.82;2.42;;;9.80;99.90;;;;;;5016007;28;20060;-74
2022/01/27 13:07:46;;;;;;;19.05;2.70;;;9.80;99.90;;;;;;4998310;28;20041;-74
2022/01/27 13:10:16;;;;;;;10.32;2.28;;;9.90;99.90;;;;;;5002715;28;20465;-74
2022/01/27 13:12:48;;;;;;;18.88;2.63;;;9.80;99.90;;;;;;5007085;28;20140;-74
2022/01/27 13:15:25;;;;;;;18.10;4.28;;;9.80;99.90;;;;;;5004953;28;20505;-74
2022/01/27 13:18:01;;;;;;;15.48;2.88;;;9.80;99.90;;;;;;5004142;28;20068;-74
2022/01/27 13:20:37;;;;;;;20.48;3.78;;;9.80;99.90;;;;;;5002568;28;20050;-74
2022/01/27 13:23:13;;;;;;;12.05;2.97;;;9.80;99.90;;;;;;5003929;28;20054;-75
2022/01/27 13:25:47;;;;;;;28.85;3.85;;;9.70;99.90;;;;;;5014518;28;20100;-75
2022/01/27 13:28:21;;;;;;;17.77;3.20;;;9.70;99.90;;;;;;5017417;28;20060;-74
2022/01/27 13:30:52;;;;;;;11.27;2.58;;;9.70;99.90;;;;;;5016548;28;20050;-75
2022/01/27 13:33:19;;;;;;;14.52;2.58;;;9.70;99.90;;;;;;5019626;28;20131;-74
2022/01/27 13:35:46;;;;;;;26.52;4.57;;;9.70;99.90;;;;;;5025272;28;20042;-82
2022/01/27 13:38:23;;;;;;;25.30;4.55;;;9.70;99.90;;;;;;5007819;28;20417;-83
2022/01/27 13:41:16;;;;;;;20.65;4.10;;;9.70;99.90;;;;;;5021091;28;20096;-82